sensor_id;sensor_type;location;lat;lon;timestamp;P1;durP1;ratioP1;P2;durP2;ratioP2
8048;SDS011;20935;42.660;23.342;2023-05-16T00:00:34;7.93;;;7.23;;
8048;SDS011;20935;42.660;23.342;2023-05-16T00:03:21;8.20;;;7.47;;
8048;SDS011;20935;42.660;23.342;2023-05-16T00:06:06;7.80;;;7.10;;
8048;SDS011;20935;42.660;23.342;2023-05-16T00:08:52;8.27;;;7.57;;
8048;SDS011;20935;42.660;23.342;2023-05-16T00:11:37;8.37;;;7.53;;
8048;SDS011;20935;42.660;23.342;2023-05-16T00:14:24;7.87;;;7.17;;
8048;SDS011;20935;42.660;23.342;2023-05-16T00:17:11;7.03;;;6.43;;
8048;SDS011;20935;42.660;23.342;2023-05-16T00:19:57;8.10;;;7.40;;
8048;SDS011;20935;42.660;23.342;2023-05-16T00:22:43;7.53;;;6.77;;
8048;SDS011;20935;42.660;23.342;2023-05-16T00:25:28;8.30;;;7.60;;
8048;SDS011;20935;42.660;23.342;2023-05-16T00:28:14;7.93;;;7.17;;
8048;SDS011;20935;42.660;23.342;2023-05-16T00:31:01;8.43;;;6.80;;
8048;SDS011;20935;42.660;23.342;2023-05-16T00:33:47;8.03;;;7.20;;
8048;SDS011;20935;42.660;23.342;2023-05-16T00:36:32;8.70;;;7.70;;
8048;SDS011;20935;42.660;23.342;2023-05-16T00:39:18;8.50;;;7.70;;
8048;SDS011;20935;42.660;23.342;2023-05-16T00:42:04;7.87;;;7.17;;
8048;SDS011;20935;42.660;23.342;2023-05-16T00:44:50;7.97;;;7.27;;
8048;SDS011;20935;42.660;23.342;2023-05-16T00:47:36;7.83;;;7.13;;
8048;SDS011;20935;42.660;23.342;2023-05-16T00:50:22;8.00;;;7.30;;
8048;SDS011;20935;42.660;23.342;2023-05-16T00:53:07;7.43;;;6.83;;
8048;SDS011;20935;42.660;23.342;2023-05-16T00:55:52;7.67;;;6.83;;
8048;SDS011;20935;42.660;23.342;2023-05-16T00:58:40;7.20;;;6.60;;
8048;SDS011;20935;42.660;23.342;2023-05-16T01:01:26;8.17;;;7.47;;
8048;SDS011;20935;42.660;23.342;2023-05-16T01:04:14;8.27;;;7.57;;
8048;SDS011;20935;42.660;23.342;2023-05-16T01:07:00;7.80;;;7.07;;
8048;SDS011;20935;42.660;23.342;2023-05-16T01:09:46;7.73;;;6.93;;
8048;SDS011;20935;42.660;23.342;2023-05-16T01:12:35;7.97;;;7.07;;
8048;SDS011;20935;42.660;23.342;2023-05-16T01:15:27;7.17;;;6.57;;
8048;SDS011;20935;42.660;23.342;2023-05-16T01:18:16;7.30;;;6.70;;
8048;SDS011;20935;42.660;23.342;2023-05-16T01:21:08;7.40;;;6.70;;
8048;SDS011;20935;42.660;23.342;2023-05-16T01:24:02;7.33;;;6.63;;
8048;SDS011;20935;42.660;23.342;2023-05-16T01:26:55;6.93;;;6.23;;
8048;SDS011;20935;42.660;23.342;2023-05-16T01:29:43;7.80;;;7.10;;
8048;SDS011;20935;42.660;23.342;2023-05-16T01:32:28;7.60;;;6.90;;
8048;SDS011;20935;42.660;23.342;2023-05-16T01:35:14;6.80;;;6.20;;
8048;SDS011;20935;42.660;23.342;2023-05-16T01:38:02;7.27;;;6.53;;
8048;SDS011;20935;42.660;23.342;2023-05-16T01:40:56;7.30;;;6.70;;
8048;SDS011;20935;42.660;23.342;2023-05-16T01:43:47;7.33;;;6.73;;
8048;SDS011;20935;42.660;23.342;2023-05-16T01:46:36;7.03;;;6.43;;
8048;SDS011;20935;42.660;23.342;2023-05-16T01:49:25;7.23;;;6.63;;
8048;SDS011;20935;42.660;23.342;2023-05-16T01:52:18;7.37;;;6.73;;
8048;SDS011;20935;42.660;23.342;2023-05-16T01:55:08;6.90;;;6.30;;
8048;SDS011;20935;42.660;23.342;2023-05-16T01:57:58;7.60;;;6.90;;
8048;SDS011;20935;42.660;23.342;2023-05-16T02:00:48;7.37;;;6.77;;
8048;SDS011;20935;42.660;23.342;2023-05-16T02:03:34;7.53;;;6.93;;
8048;SDS011;20935;42.660;23.342;2023-05-16T02:06:19;7.10;;;6.50;;
8048;SDS011;20935;42.660;23.342;2023-05-16T02:09:05;7.10;;;6.50;;
8048;SDS011;20935;42.660;23.342;2023-05-16T02:11:51;7.10;;;6.50;;
8048;SDS011;20935;42.660;23.342;2023-05-16T02:14:36;7.27;;;6.67;;
8048;SDS011;20935;42.660;23.342;2023-05-16T02:17:23;6.80;;;6.20;;
8048;SDS011;20935;42.660;23.342;2023-05-16T02:20:09;7.40;;;6.80;;
8048;SDS011;20935;42.660;23.342;2023-05-16T02:22:56;7.27;;;6.67;;
8048;SDS011;20935;42.660;23.342;2023-05-16T02:25:41;7.93;;;7.17;;
8048;SDS011;20935;42.660;23.342;2023-05-16T02:28:27;6.90;;;6.20;;
8048;SDS011;20935;42.660;23.342;2023-05-16T02:31:12;7.70;;;7.10;;
8048;SDS011;20935;42.660;23.342;2023-05-16T02:33:59;7.40;;;6.70;;
8048;SDS011;20935;42.660;23.342;2023-05-16T02:36:45;7.20;;;6.50;;
8048;SDS011;20935;42.660;23.342;2023-05-16T02:39:31;6.77;;;6.17;;
8048;SDS011;20935;42.660;23.342;2023-05-16T02:42:16;6.90;;;6.30;;
8048;SDS011;20935;42.660;23.342;2023-05-16T02:45:02;7.10;;;6.20;;
8048;SDS011;20935;42.660;23.342;2023-05-16T02:47:48;6.73;;;6.03;;
8048;SDS011;20935;42.660;23.342;2023-05-16T02:50:35;7.57;;;6.77;;
8048;SDS011;20935;42.660;23.342;2023-05-16T02:53:23;6.83;;;6.20;;
8048;SDS011;20935;42.660;23.342;2023-05-16T02:56:08;7.10;;;6.40;;
8048;SDS011;20935;42.660;23.342;2023-05-16T02:58:54;6.60;;;6.03;;
8048;SDS011;20935;42.660;23.342;2023-05-16T03:01:39;6.73;;;6.13;;
8048;SDS011;20935;42.660;23.342;2023-05-16T03:04:28;7.23;;;6.50;;
8048;SDS011;20935;42.660;23.342;2023-05-16T03:07:16;6.90;;;6.30;;
8048;SDS011;20935;42.660;23.342;2023-05-16T03:10:01;6.97;;;6.37;;
8048;SDS011;20935;42.660;23.342;2023-05-16T03:12:47;6.47;;;5.87;;
8048;SDS011;20935;42.660;23.342;2023-05-16T03:15:33;6.70;;;6.10;;
8048;SDS011;20935;42.660;23.342;2023-05-16T03:18:18;6.67;;;6.10;;
8048;SDS011;20935;42.660;23.342;2023-05-16T03:21:04;6.67;;;6.07;;
8048;SDS011;20935;42.660;23.342;2023-05-16T03:23:50;6.13;;;5.63;;
8048;SDS011;20935;42.660;23.342;2023-05-16T03:26:37;6.43;;;5.83;;
8048;SDS011;20935;42.660;23.342;2023-05-16T03:29:23;7.77;;;6.00;;
8048;SDS011;20935;42.660;23.342;2023-05-16T03:32:09;6.00;;;5.40;;
8048;SDS011;20935;42.660;23.342;2023-05-16T03:34:55;6.53;;;5.93;;
8048;SDS011;20935;42.660;23.342;2023-05-16T03:37:40;6.20;;;5.67;;
8048;SDS011;20935;42.660;23.342;2023-05-16T03:40:27;6.57;;;5.97;;
8048;SDS011;20935;42.660;23.342;2023-05-16T03:43:13;6.43;;;5.93;;
8048;SDS011;20935;42.660;23.342;2023-05-16T03:46:01;6.53;;;5.87;;
8048;SDS011;20935;42.660;23.342;2023-05-16T03:48:47;6.50;;;5.90;;
8048;SDS011;20935;42.660;23.342;2023-05-16T03:51:32;5.80;;;5.30;;
8048;SDS011;20935;42.660;23.342;2023-05-16T03:54:18;6.40;;;5.87;;
8048;SDS011;20935;42.660;23.342;2023-05-16T03:57:04;6.63;;;6.07;;
8048;SDS011;20935;42.660;23.342;2023-05-16T03:59:50;6.07;;;5.57;;
8048;SDS011;20935;42.660;23.342;2023-05-16T04:02:35;7.00;;;5.83;;
8048;SDS011;20935;42.660;23.342;2023-05-16T04:05:22;6.30;;;5.70;;
8048;SDS011;20935;42.660;23.342;2023-05-16T04:08:08;6.60;;;6.03;;
8048;SDS011;20935;42.660;23.342;2023-05-16T04:10:53;6.10;;;5.40;;
8048;SDS011;20935;42.660;23.342;2023-05-16T04:13:40;5.63;;;5.17;;
8048;SDS011;20935;42.660;23.342;2023-05-16T04:16:26;6.33;;;5.83;;
8048;SDS011;20935;42.660;23.342;2023-05-16T04:19:11;5.97;;;5.37;;
8048;SDS011;20935;42.660;23.342;2023-05-16T04:21:57;6.10;;;5.60;;
8048;SDS011;20935;42.660;23.342;2023-05-16T04:24:42;6.23;;;5.63;;
8048;SDS011;20935;42.660;23.342;2023-05-16T04:27:28;6.03;;;5.50;;
8048;SDS011;20935;42.660;23.342;2023-05-16T04:30:16;6.00;;;5.50;;
8048;SDS011;20935;42.660;23.342;2023-05-16T04:33:01;6.50;;;5.90;;
8048;SDS011;20935;42.660;23.342;2023-05-16T04:35:46;5.70;;;5.20;;
8048;SDS011;20935;42.660;23.342;2023-05-16T04:38:32;6.63;;;6.03;;
8048;SDS011;20935;42.660;23.342;2023-05-16T04:41:18;6.40;;;5.80;;
8048;SDS011;20935;42.660;23.342;2023-05-16T04:44:05;6.57;;;5.97;;
8048;SDS011;20935;42.660;23.342;2023-05-16T04:46:52;5.87;;;5.43;;
8048;SDS011;20935;42.660;23.342;2023-05-16T04:49:38;5.57;;;5.07;;
8048;SDS011;20935;42.660;23.342;2023-05-16T04:52:23;5.63;;;5.23;;
8048;SDS011;20935;42.660;23.342;2023-05-16T04:55:09;5.80;;;5.30;;
8048;SDS011;20935;42.660;23.342;2023-05-16T04:57:55;5.90;;;5.37;;
8048;SDS011;20935;42.660;23.342;2023-05-16T05:00:40;5.43;;;4.93;;
8048;SDS011;20935;42.660;23.342;2023-05-16T05:03:27;6.47;;;5.97;;
8048;SDS011;20935;42.660;23.342;2023-05-16T05:06:13;6.43;;;5.83;;
8048;SDS011;20935;42.660;23.342;2023-05-16T05:08:59;6.07;;;5.57;;
8048;SDS011;20935;42.660;23.342;2023-05-16T05:11:44;6.20;;;5.60;;
8048;SDS011;20935;42.660;23.342;2023-05-16T05:14:30;5.77;;;5.27;;
8048;SDS011;20935;42.660;23.342;2023-05-16T05:17:16;6.30;;;5.70;;
8048;SDS011;20935;42.660;23.342;2023-05-16T05:20:03;5.93;;;5.43;;
8048;SDS011;20935;42.660;23.342;2023-05-16T05:22:51;6.40;;;5.80;;
8048;SDS011;20935;42.660;23.342;2023-05-16T05:25:37;6.20;;;5.70;;
8048;SDS011;20935;42.660;23.342;2023-05-16T05:28:23;6.63;;;5.93;;
8048;SDS011;20935;42.660;23.342;2023-05-16T05:31:09;6.83;;;6.00;;
8048;SDS011;20935;42.660;23.342;2023-05-16T05:33:54;5.83;;;5.33;;
8048;SDS011;20935;42.660;23.342;2023-05-16T05:36:45;5.93;;;5.43;;
8048;SDS011;20935;42.660;23.342;2023-05-16T05:39:30;6.30;;;5.80;;
8048;SDS011;20935;42.660;23.342;2023-05-16T05:42:16;6.23;;;5.73;;
8048;SDS011;20935;42.660;23.342;2023-05-16T05:45:01;6.17;;;5.67;;
8048;SDS011;20935;42.660;23.342;2023-05-16T05:47:47;6.30;;;5.70;;
8048;SDS011;20935;42.660;23.342;2023-05-16T05:50:32;5.87;;;5.37;;
8048;SDS011;20935;42.660;23.342;2023-05-16T05:53:19;5.90;;;5.30;;
8048;SDS011;20935;42.660;23.342;2023-05-16T05:56:05;6.37;;;5.87;;
8048;SDS011;20935;42.660;23.342;2023-05-16T05:58:50;5.87;;;5.37;;
8048;SDS011;20935;42.660;23.342;2023-05-16T06:01:36;6.37;;;5.77;;
8048;SDS011;20935;42.660;23.342;2023-05-16T06:04:22;5.90;;;5.40;;
8048;SDS011;20935;42.660;23.342;2023-05-16T06:07:08;7.00;;;5.43;;
8048;SDS011;20935;42.660;23.342;2023-05-16T06:09:55;6.00;;;5.50;;
8048;SDS011;20935;42.660;23.342;2023-05-16T06:12:40;5.67;;;5.17;;
8048;SDS011;20935;42.660;23.342;2023-05-16T06:15:26;5.67;;;5.17;;
8048;SDS011;20935;42.660;23.342;2023-05-16T06:18:12;6.37;;;5.77;;
8048;SDS011;20935;42.660;23.342;2023-05-16T06:20:57;6.03;;;5.53;;
8048;SDS011;20935;42.660;23.342;2023-05-16T06:23:43;6.03;;;5.53;;
8048;SDS011;20935;42.660;23.342;2023-05-16T06:26:29;6.90;;;5.87;;
8048;SDS011;20935;42.660;23.342;2023-05-16T06:29:15;6.03;;;5.53;;
8048;SDS011;20935;42.660;23.342;2023-05-16T06:32:00;5.70;;;5.20;;
8048;SDS011;20935;42.660;23.342;2023-05-16T06:34:46;5.53;;;5.07;;
8048;SDS011;20935;42.660;23.342;2023-05-16T06:37:32;6.97;;;5.90;;
8048;SDS011;20935;42.660;23.342;2023-05-16T06:40:18;6.00;;;5.50;;
8048;SDS011;20935;42.660;23.342;2023-05-16T06:43:05;5.97;;;5.20;;
8048;SDS011;20935;42.660;23.342;2023-05-16T06:45:51;6.17;;;5.53;;
8048;SDS011;20935;42.660;23.342;2023-05-16T06:48:36;7.57;;;5.77;;
8048;SDS011;20935;42.660;23.342;2023-05-16T06:51:21;9.23;;;6.13;;
8048;SDS011;20935;42.660;23.342;2023-05-16T06:54:07;9.50;;;6.53;;
8048;SDS011;20935;42.660;23.342;2023-05-16T06:56:52;7.37;;;5.77;;
8048;SDS011;20935;42.660;23.342;2023-05-16T06:59:39;5.83;;;5.23;;
8048;SDS011;20935;42.660;23.342;2023-05-16T07:02:25;12.87;;;6.17;;
8048;SDS011;20935;42.660;23.342;2023-05-16T07:05:11;6.33;;;5.70;;
8048;SDS011;20935;42.660;23.342;2023-05-16T07:07:56;8.43;;;6.13;;
8048;SDS011;20935;42.660;23.342;2023-05-16T07:10:42;6.20;;;5.60;;
8048;SDS011;20935;42.660;23.342;2023-05-16T07:13:27;7.60;;;6.07;;
8048;SDS011;20935;42.660;23.342;2023-05-16T07:16:14;5.63;;;5.13;;
8048;SDS011;20935;42.660;23.342;2023-05-16T07:19:00;7.33;;;5.60;;
8048;SDS011;20935;42.660;23.342;2023-05-16T07:21:45;8.80;;;6.33;;
8048;SDS011;20935;42.660;23.342;2023-05-16T07:24:31;6.40;;;5.80;;
8048;SDS011;20935;42.660;23.342;2023-05-16T07:27:16;6.13;;;5.53;;
8048;SDS011;20935;42.660;23.342;2023-05-16T07:30:03;7.70;;;5.93;;
8048;SDS011;20935;42.660;23.342;2023-05-16T07:32:50;6.47;;;5.83;;
8048;SDS011;20935;42.660;23.342;2023-05-16T07:35:35;7.43;;;5.63;;
8048;SDS011;20935;42.660;23.342;2023-05-16T07:38:21;7.33;;;5.80;;
8048;SDS011;20935;42.660;23.342;2023-05-16T07:41:07;6.53;;;5.80;;
8048;SDS011;20935;42.660;23.342;2023-05-16T07:43:52;7.20;;;5.60;;
8048;SDS011;20935;42.660;23.342;2023-05-16T07:46:38;5.87;;;4.87;;
8048;SDS011;20935;42.660;23.342;2023-05-16T07:49:25;6.53;;;5.83;;
8048;SDS011;20935;42.660;23.342;2023-05-16T07:52:10;6.40;;;5.73;;
8048;SDS011;20935;42.660;23.342;2023-05-16T07:54:56;5.93;;;5.33;;
8048;SDS011;20935;42.660;23.342;2023-05-16T07:57:41;6.17;;;5.67;;
8048;SDS011;20935;42.660;23.342;2023-05-16T08:00:27;7.00;;;6.33;;
8048;SDS011;20935;42.660;23.342;2023-05-16T08:03:12;6.37;;;5.77;;
8048;SDS011;20935;42.660;23.342;2023-05-16T08:05:59;5.53;;;5.03;;
8048;SDS011;20935;42.660;23.342;2023-05-16T08:08:46;6.00;;;5.27;;
8048;SDS011;20935;42.660;23.342;2023-05-16T08:11:31;6.00;;;5.40;;
8048;SDS011;20935;42.660;23.342;2023-05-16T08:14:17;5.80;;;5.30;;
8048;SDS011;20935;42.660;23.342;2023-05-16T08:17:02;9.93;;;5.53;;
8048;SDS011;20935;42.660;23.342;2023-05-16T08:19:48;5.87;;;5.37;;
8048;SDS011;20935;42.660;23.342;2023-05-16T08:22:35;5.83;;;5.33;;
8048;SDS011;20935;42.660;23.342;2023-05-16T08:25:21;7.17;;;6.00;;
8048;SDS011;20935;42.660;23.342;2023-05-16T08:28:06;6.20;;;5.60;;
8048;SDS011;20935;42.660;23.342;2023-05-16T08:30:51;6.07;;;5.57;;
8048;SDS011;20935;42.660;23.342;2023-05-16T08:33:37;6.20;;;5.60;;
8048;SDS011;20935;42.660;23.342;2023-05-16T08:36:22;6.30;;;5.50;;
8048;SDS011;20935;42.660;23.342;2023-05-16T08:39:10;5.97;;;5.47;;
8048;SDS011;20935;42.660;23.342;2023-05-16T08:41:55;7.17;;;5.37;;
8048;SDS011;20935;42.660;23.342;2023-05-16T08:44:41;6.23;;;5.73;;
8048;SDS011;20935;42.660;23.342;2023-05-16T08:47:27;5.60;;;5.10;;
8048;SDS011;20935;42.660;23.342;2023-05-16T08:50:17;5.77;;;5.27;;
8048;SDS011;20935;42.660;23.342;2023-05-16T08:53:03;6.37;;;5.73;;
8048;SDS011;20935;42.660;23.342;2023-05-16T08:55:51;7.27;;;5.60;;
8048;SDS011;20935;42.660;23.342;2023-05-16T08:58:37;5.90;;;5.30;;
8048;SDS011;20935;42.660;23.342;2023-05-16T09:01:24;5.67;;;5.17;;
8048;SDS011;20935;42.660;23.342;2023-05-16T09:04:10;6.07;;;5.47;;
8048;SDS011;20935;42.660;23.342;2023-05-16T09:06:55;5.80;;;5.30;;
8048;SDS011;20935;42.660;23.342;2023-05-16T09:09:41;5.77;;;5.27;;
8048;SDS011;20935;42.660;23.342;2023-05-16T09:12:28;5.87;;;5.20;;
8048;SDS011;20935;42.660;23.342;2023-05-16T09:15:16;5.87;;;5.27;;
8048;SDS011;20935;42.660;23.342;2023-05-16T09:18:02;5.83;;;5.33;;
8048;SDS011;20935;42.660;23.342;2023-05-16T09:20:48;5.87;;;5.37;;
8048;SDS011;20935;42.660;23.342;2023-05-16T09:23:34;5.80;;;5.20;;
8048;SDS011;20935;42.660;23.342;2023-05-16T09:26:19;7.30;;;5.97;;
8048;SDS011;20935;42.660;23.342;2023-05-16T09:29:10;6.07;;;5.47;;
8048;SDS011;20935;42.660;23.342;2023-05-16T09:31:58;6.20;;;5.60;;
8048;SDS011;20935;42.660;23.342;2023-05-16T09:34:52;6.03;;;5.43;;
8048;SDS011;20935;42.660;23.342;2023-05-16T09:37:43;6.10;;;5.40;;
8048;SDS011;20935;42.660;23.342;2023-05-16T09:40:29;5.90;;;5.17;;
8048;SDS011;20935;42.660;23.342;2023-05-16T09:43:15;5.97;;;5.43;;
8048;SDS011;20935;42.660;23.342;2023-05-16T09:46:02;6.00;;;5.40;;
8048;SDS011;20935;42.660;23.342;2023-05-16T09:48:48;6.43;;;5.83;;
8048;SDS011;20935;42.660;23.342;2023-05-16T09:51:36;6.33;;;5.80;;
8048;SDS011;20935;42.660;23.342;2023-05-16T09:54:28;5.73;;;5.23;;
8048;SDS011;20935;42.660;23.342;2023-05-16T09:57:16;6.63;;;5.40;;
8048;SDS011;20935;42.660;23.342;2023-05-16T10:00:04;6.03;;;5.40;;
8048;SDS011;20935;42.660;23.342;2023-05-16T10:02:52;5.87;;;5.27;;
8048;SDS011;20935;42.660;23.342;2023-05-16T10:05:40;7.27;;;6.00;;
8048;SDS011;20935;42.660;23.342;2023-05-16T10:08:26;5.73;;;5.20;;
8048;SDS011;20935;42.660;23.342;2023-05-16T10:11:12;5.87;;;5.07;;
8048;SDS011;20935;42.660;23.342;2023-05-16T10:13:59;7.77;;;5.33;;
8048;SDS011;20935;42.660;23.342;2023-05-16T10:16:45;5.70;;;4.90;;
8048;SDS011;20935;42.660;23.342;2023-05-16T10:19:33;5.43;;;4.93;;
8048;SDS011;20935;42.660;23.342;2023-05-16T10:22:21;5.87;;;5.33;;
8048;SDS011;20935;42.660;23.342;2023-05-16T10:27:59;5.03;;;4.63;;
8048;SDS011;20935;42.660;23.342;2023-05-16T10:30:45;5.77;;;5.17;;
8048;SDS011;20935;42.660;23.342;2023-05-16T10:33:31;6.27;;;5.77;;
8048;SDS011;20935;42.660;23.342;2023-05-16T10:36:18;5.90;;;5.40;;
8048;SDS011;20935;42.660;23.342;2023-05-16T10:39:04;5.63;;;5.13;;
8048;SDS011;20935;42.660;23.342;2023-05-16T10:41:51;6.00;;;5.50;;
8048;SDS011;20935;42.660;23.342;2023-05-16T10:44:37;6.13;;;5.53;;
8048;SDS011;20935;42.660;23.342;2023-05-16T10:47:23;6.37;;;5.80;;
8048;SDS011;20935;42.660;23.342;2023-05-16T10:50:09;5.87;;;5.37;;
8048;SDS011;20935;42.660;23.342;2023-05-16T10:52:56;5.57;;;5.07;;
8048;SDS011;20935;42.660;23.342;2023-05-16T10:56:05;5.87;;;5.37;;
8048;SDS011;20935;42.660;23.342;2023-05-16T10:58:53;5.83;;;5.20;;
8048;SDS011;20935;42.660;23.342;2023-05-16T11:01:39;6.00;;;5.40;;
8048;SDS011;20935;42.660;23.342;2023-05-16T11:04:31;5.63;;;5.13;;
8048;SDS011;20935;42.660;23.342;2023-05-16T11:07:31;5.80;;;5.27;;
8048;SDS011;20935;42.660;23.342;2023-05-16T11:10:18;5.73;;;5.20;;
8048;SDS011;20935;42.660;23.342;2023-05-16T11:13:06;7.50;;;5.27;;
8048;SDS011;20935;42.660;23.342;2023-05-16T11:15:52;11.80;;;5.17;;
8048;SDS011;20935;42.660;23.342;2023-05-16T11:19:12;5.80;;;5.20;;
8048;SDS011;20935;42.660;23.342;2023-05-16T11:22:11;5.70;;;5.00;;
8048;SDS011;20935;42.660;23.342;2023-05-16T11:25:06;6.20;;;5.60;;
8048;SDS011;20935;42.660;23.342;2023-05-16T11:27:54;6.37;;;5.77;;
8048;SDS011;20935;42.660;23.342;2023-05-16T11:30:41;5.83;;;5.33;;
8048;SDS011;20935;42.660;23.342;2023-05-16T11:33:29;6.53;;;5.93;;
8048;SDS011;20935;42.660;23.342;2023-05-16T11:36:18;5.30;;;4.90;;
8048;SDS011;20935;42.660;23.342;2023-05-16T11:39:07;5.77;;;5.20;;
8048;SDS011;20935;42.660;23.342;2023-05-16T11:41:52;6.67;;;5.30;;
8048;SDS011;20935;42.660;23.342;2023-05-16T11:44:39;6.57;;;5.53;;
8048;SDS011;20935;42.660;23.342;2023-05-16T11:47:25;5.70;;;5.20;;
8048;SDS011;20935;42.660;23.342;2023-05-16T11:50:12;6.63;;;5.47;;
8048;SDS011;20935;42.660;23.342;2023-05-16T11:52:58;6.33;;;5.80;;
8048;SDS011;20935;42.660;23.342;2023-05-16T11:55:44;5.40;;;5.00;;
8048;SDS011;20935;42.660;23.342;2023-05-16T11:58:34;6.17;;;5.67;;
8048;SDS011;20935;42.660;23.342;2023-05-16T12:01:22;6.07;;;5.47;;
8048;SDS011;20935;42.660;23.342;2023-05-16T12:04:07;6.13;;;5.53;;
8048;SDS011;20935;42.660;23.342;2023-05-16T12:06:58;6.10;;;5.33;;
8048;SDS011;20935;42.660;23.342;2023-05-16T12:09:50;5.50;;;5.03;;
8048;SDS011;20935;42.660;23.342;2023-05-16T12:12:37;4.97;;;4.53;;
8048;SDS011;20935;42.660;23.342;2023-05-16T12:15:25;5.50;;;5.00;;
8048;SDS011;20935;42.660;23.342;2023-05-16T12:18:12;5.90;;;5.30;;
8048;SDS011;20935;42.660;23.342;2023-05-16T12:20:58;5.70;;;5.03;;
8048;SDS011;20935;42.660;23.342;2023-05-16T12:23:44;5.60;;;5.10;;
8048;SDS011;20935;42.660;23.342;2023-05-16T12:26:30;5.30;;;4.80;;
8048;SDS011;20935;42.660;23.342;2023-05-16T12:29:16;5.97;;;5.30;;
8048;SDS011;20935;42.660;23.342;2023-05-16T12:32:07;6.30;;;4.97;;
8048;SDS011;20935;42.660;23.342;2023-05-16T12:34:54;5.50;;;4.97;;
8048;SDS011;20935;42.660;23.342;2023-05-16T12:37:41;5.67;;;5.17;;
8048;SDS011;20935;42.660;23.342;2023-05-16T12:40:27;5.50;;;5.00;;
8048;SDS011;20935;42.660;23.342;2023-05-16T12:43:13;5.50;;;5.00;;
8048;SDS011;20935;42.660;23.342;2023-05-16T12:45:59;5.47;;;4.97;;
8048;SDS011;20935;42.660;23.342;2023-05-16T12:48:44;5.37;;;4.90;;
8048;SDS011;20935;42.660;23.342;2023-05-16T12:51:32;5.57;;;4.97;;
8048;SDS011;20935;42.660;23.342;2023-05-16T12:54:17;5.77;;;5.10;;
8048;SDS011;20935;42.660;23.342;2023-05-16T12:57:05;5.70;;;5.20;;
8048;SDS011;20935;42.660;23.342;2023-05-16T12:59:52;5.37;;;4.87;;
8048;SDS011;20935;42.660;23.342;2023-05-16T13:02:38;5.20;;;4.80;;
8048;SDS011;20935;42.660;23.342;2023-05-16T13:05:24;5.57;;;5.00;;
8048;SDS011;20935;42.660;23.342;2023-05-16T13:08:11;5.50;;;5.00;;
8048;SDS011;20935;42.660;23.342;2023-05-16T13:10:57;5.13;;;4.73;;
8048;SDS011;20935;42.660;23.342;2023-05-16T13:13:42;5.10;;;4.70;;
8048;SDS011;20935;42.660;23.342;2023-05-16T13:16:27;5.83;;;5.23;;
8048;SDS011;20935;42.660;23.342;2023-05-16T13:19:13;5.60;;;5.10;;
8048;SDS011;20935;42.660;23.342;2023-05-16T13:21:58;5.60;;;5.10;;
8048;SDS011;20935;42.660;23.342;2023-05-16T13:24:45;5.23;;;4.83;;
8048;SDS011;20935;42.660;23.342;2023-05-16T13:27:30;5.50;;;5.00;;
8048;SDS011;20935;42.660;23.342;2023-05-16T13:30:16;4.83;;;4.43;;
8048;SDS011;20935;42.660;23.342;2023-05-16T13:33:02;5.83;;;5.30;;
8048;SDS011;20935;42.660;23.342;2023-05-16T13:35:47;7.13;;;4.90;;
8048;SDS011;20935;42.660;23.342;2023-05-16T13:38:34;5.33;;;4.83;;
8048;SDS011;20935;42.660;23.342;2023-05-16T13:41:21;5.30;;;4.80;;
8048;SDS011;20935;42.660;23.342;2023-05-16T13:44:06;5.37;;;4.97;;
8048;SDS011;20935;42.660;23.342;2023-05-16T13:46:52;6.37;;;5.03;;
8048;SDS011;20935;42.660;23.342;2023-05-16T13:49:40;5.00;;;4.60;;
8048;SDS011;20935;42.660;23.342;2023-05-16T13:52:26;5.73;;;5.23;;
8048;SDS011;20935;42.660;23.342;2023-05-16T13:55:11;5.50;;;5.00;;
8048;SDS011;20935;42.660;23.342;2023-05-16T13:57:59;5.00;;;4.60;;
8048;SDS011;20935;42.660;23.342;2023-05-16T14:00:45;4.90;;;4.50;;
8048;SDS011;20935;42.660;23.342;2023-05-16T14:03:30;5.70;;;5.10;;
8048;SDS011;20935;42.660;23.342;2023-05-16T14:06:19;5.67;;;5.17;;
8048;SDS011;20935;42.660;23.342;2023-05-16T14:09:05;5.17;;;4.77;;
8048;SDS011;20935;42.660;23.342;2023-05-16T14:11:51;6.10;;;4.87;;
8048;SDS011;20935;42.660;23.342;2023-05-16T14:14:38;6.57;;;5.20;;
8048;SDS011;20935;42.660;23.342;2023-05-16T14:17:23;7.57;;;5.20;;
8048;SDS011;20935;42.660;23.342;2023-05-16T14:20:10;5.53;;;5.03;;
8048;SDS011;20935;42.660;23.342;2023-05-16T14:22:58;5.13;;;4.63;;
8048;SDS011;20935;42.660;23.342;2023-05-16T14:25:43;4.80;;;4.40;;
8048;SDS011;20935;42.660;23.342;2023-05-16T14:28:29;5.23;;;4.73;;
8048;SDS011;20935;42.660;23.342;2023-05-16T14:31:16;5.63;;;4.73;;
8048;SDS011;20935;42.660;23.342;2023-05-16T14:34:02;5.17;;;4.77;;
8048;SDS011;20935;42.660;23.342;2023-05-16T14:36:48;6.50;;;5.03;;
8048;SDS011;20935;42.660;23.342;2023-05-16T14:39:33;5.20;;;4.70;;
8048;SDS011;20935;42.660;23.342;2023-05-16T14:42:19;5.20;;;4.80;;
8048;SDS011;20935;42.660;23.342;2023-05-16T14:45:04;4.70;;;4.30;;
8048;SDS011;20935;42.660;23.342;2023-05-16T14:47:52;4.93;;;4.53;;
8048;SDS011;20935;42.660;23.342;2023-05-16T14:50:37;5.03;;;4.63;;
8048;SDS011;20935;42.660;23.342;2023-05-16T14:53:23;5.20;;;4.70;;
8048;SDS011;20935;42.660;23.342;2023-05-16T14:56:09;5.27;;;4.53;;
8048;SDS011;20935;42.660;23.342;2023-05-16T14:58:54;5.33;;;4.63;;
8048;SDS011;20935;42.660;23.342;2023-05-16T15:01:40;4.80;;;3.97;;
8048;SDS011;20935;42.660;23.342;2023-05-16T15:04:27;6.07;;;5.07;;
8048;SDS011;20935;42.660;23.342;2023-05-16T15:07:12;5.30;;;4.63;;
8048;SDS011;20935;42.660;23.342;2023-05-16T15:09:58;4.90;;;4.50;;
8048;SDS011;20935;42.660;23.342;2023-05-16T15:12:43;5.00;;;4.60;;
8048;SDS011;20935;42.660;23.342;2023-05-16T15:15:29;4.83;;;4.43;;
8048;SDS011;20935;42.660;23.342;2023-05-16T15:18:15;5.03;;;4.60;;
8048;SDS011;20935;42.660;23.342;2023-05-16T15:21:02;6.43;;;4.77;;
8048;SDS011;20935;42.660;23.342;2023-05-16T15:23:47;4.43;;;4.13;;
8048;SDS011;20935;42.660;23.342;2023-05-16T15:26:33;4.97;;;4.47;;
8048;SDS011;20935;42.660;23.342;2023-05-16T15:29:19;5.23;;;4.80;;
8048;SDS011;20935;42.660;23.342;2023-05-16T15:32:05;5.27;;;4.77;;
8048;SDS011;20935;42.660;23.342;2023-05-16T15:34:50;4.63;;;4.23;;
8048;SDS011;20935;42.660;23.342;2023-05-16T15:37:38;5.70;;;5.13;;
8048;SDS011;20935;42.660;23.342;2023-05-16T15:40:23;5.10;;;4.60;;
8048;SDS011;20935;42.660;23.342;2023-05-16T15:43:09;4.93;;;4.47;;
8048;SDS011;20935;42.660;23.342;2023-05-16T15:45:55;6.00;;;4.63;;
8048;SDS011;20935;42.660;23.342;2023-05-16T15:48:41;4.90;;;4.50;;
8048;SDS011;20935;42.660;23.342;2023-05-16T15:51:27;5.03;;;4.53;;
8048;SDS011;20935;42.660;23.342;2023-05-16T15:54:14;5.73;;;5.00;;
8048;SDS011;20935;42.660;23.342;2023-05-16T15:57:00;5.43;;;4.93;;
8048;SDS011;20935;42.660;23.342;2023-05-16T15:59:45;5.00;;;4.60;;
8048;SDS011;20935;42.660;23.342;2023-05-16T16:02:31;5.83;;;5.23;;
8048;SDS011;20935;42.660;23.342;2023-05-16T16:05:17;5.07;;;4.57;;
8048;SDS011;20935;42.660;23.342;2023-05-16T16:08:02;4.90;;;4.50;;
8048;SDS011;20935;42.660;23.342;2023-05-16T16:10:50;5.37;;;4.87;;
8048;SDS011;20935;42.660;23.342;2023-05-16T16:13:35;5.13;;;4.63;;
8048;SDS011;20935;42.660;23.342;2023-05-16T16:16:20;5.83;;;4.30;;
8048;SDS011;20935;42.660;23.342;2023-05-16T16:19:06;5.70;;;4.70;;
8048;SDS011;20935;42.660;23.342;2023-05-16T16:21:51;5.20;;;4.77;;
8048;SDS011;20935;42.660;23.342;2023-05-16T16:24:37;5.73;;;4.73;;
8048;SDS011;20935;42.660;23.342;2023-05-16T16:27:24;4.73;;;4.33;;
8048;SDS011;20935;42.660;23.342;2023-05-16T16:30:09;4.80;;;4.30;;
8048;SDS011;20935;42.660;23.342;2023-05-16T16:32:55;6.37;;;4.73;;
8048;SDS011;20935;42.660;23.342;2023-05-16T16:35:41;5.07;;;4.50;;
8048;SDS011;20935;42.660;23.342;2023-05-16T16:38:26;4.97;;;4.57;;
8048;SDS011;20935;42.660;23.342;2023-05-16T16:41:12;17.00;;;5.63;;
8048;SDS011;20935;42.660;23.342;2023-05-16T16:44:00;10.37;;;4.93;;
8048;SDS011;20935;42.660;23.342;2023-05-16T16:46:46;10.40;;;5.07;;